createdAt,value
2017-11-26T00:00:10.218Z,4.70
2017-11-26T00:02:38.351Z,4.70
2017-11-26T00:05:06.486Z,4.70
2017-11-26T00:07:34.614Z,4.60
2017-11-26T00:10:02.754Z,4.60
2017-11-26T00:12:31.036Z,4.60
2017-11-26T00:14:59.174Z,4.60
2017-11-26T00:17:27.295Z,4.60
2017-11-26T00:19:56.213Z,4.50
2017-11-26T00:22:24.345Z,4.50
2017-11-26T00:24:52.503Z,4.50
2017-11-26T00:27:20.662Z,4.50
2017-11-26T00:29:48.804Z,4.50
2017-11-26T00:32:16.924Z,4.40
2017-11-26T00:34:45.062Z,4.40
2017-11-26T00:37:13.199Z,4.30
2017-11-26T00:39:41.320Z,4.30
2017-11-26T00:42:10.242Z,4.20
2017-11-26T00:44:39.132Z,4.40
2017-11-26T00:47:08.038Z,4.20
2017-11-26T00:49:36.183Z,4.20
2017-11-26T00:52:04.324Z,4.00
2017-11-26T00:54:32.460Z,4.10
2017-11-26T00:57:00.600Z,3.90
2017-11-26T00:59:28.713Z,4.00
2017-11-26T01:01:56.871Z,4.10
2017-11-26T01:04:25.757Z,4.10
2017-11-26T01:06:53.904Z,4.10
2017-11-26T01:09:22.046Z,4.10
2017-11-26T01:11:50.942Z,4.10
2017-11-26T01:14:19.070Z,4.10
2017-11-26T01:16:47.197Z,4.30
2017-11-26T01:19:15.326Z,4.10
2017-11-26T01:21:43.449Z,4.20
2017-11-26T01:24:11.589Z,4.10
2017-11-26T01:26:39.706Z,4.20
2017-11-26T01:29:08.629Z,4.20
2017-11-26T01:31:36.750Z,4.20
2017-11-26T01:34:04.897Z,4.30
2017-11-26T01:36:33.035Z,4.20
2017-11-26T01:39:01.934Z,4.50
2017-11-26T01:41:30.065Z,4.50
2017-11-26T01:43:58.227Z,4.50
2017-11-26T01:46:26.349Z,4.50
2017-11-26T01:48:54.481Z,4.70
2017-11-26T01:51:22.611Z,4.80
2017-11-26T01:53:50.728Z,4.70
2017-11-26T01:56:19.643Z,4.80
2017-11-26T01:58:47.773Z,4.80
2017-11-26T02:01:15.899Z,4.80
2017-11-26T02:03:55.833Z,4.80
2017-11-26T02:06:24.725Z,4.80
2017-11-26T02:08:54.438Z,4.80
2017-11-26T02:11:22.556Z,4.80
2017-11-26T02:13:50.706Z,4.80
2017-11-26T02:16:18.829Z,4.80
2017-11-26T02:18:46.966Z,4.80
2017-11-26T02:21:15.090Z,4.70
2017-11-26T02:23:43.294Z,4.70
2017-11-26T02:26:11.433Z,4.60
2017-11-26T02:28:40.422Z,4.60
2017-11-26T02:31:21.254Z,4.60
2017-11-26T02:34:13.786Z,4.60
2017-11-26T02:36:41.947Z,4.60
2017-11-26T02:39:10.112Z,4.50
2017-11-26T02:41:38.218Z,4.50
2017-11-26T02:44:06.358Z,4.40
2017-11-26T02:46:34.476Z,4.20
2017-11-26T02:49:02.618Z,4.00
2017-11-26T02:51:30.735Z,4.00
2017-11-26T02:53:58.858Z,3.80
2017-11-26T02:56:27.007Z,3.70
2017-11-26T02:58:55.151Z,3.60
2017-11-26T03:01:24.045Z,3.70
2017-11-26T03:03:52.931Z,3.80
2017-11-26T03:06:21.855Z,3.60
2017-11-26T03:08:50.045Z,3.60
2017-11-26T03:13:52.580Z,3.80
2017-11-26T03:16:20.730Z,3.90
2017-11-26T03:18:48.850Z,4.00
2017-11-26T03:21:17.016Z,4.10
2017-11-26T03:23:46.072Z,4.20
2017-11-26T03:26:14.331Z,4.10
2017-11-26T03:28:42.485Z,4.00
2017-11-26T03:31:10.643Z,4.10
2017-11-26T03:33:38.851Z,4.00
2017-11-26T03:36:07.200Z,4.00
2017-11-26T03:38:35.508Z,4.10
2017-11-26T03:41:03.654Z,4.00
2017-11-26T03:43:31.812Z,4.00
2017-11-26T03:45:59.953Z,3.90
2017-11-26T03:48:28.154Z,4.00
2017-11-26T03:50:56.305Z,4.00
2017-11-26T03:53:25.219Z,3.90
2017-11-26T03:55:53.350Z,3.90
2017-11-26T03:58:21.490Z,3.90
2017-11-26T04:00:49.640Z,3.90
2017-11-26T04:03:17.761Z,4.00
2017-11-26T04:05:45.954Z,4.00
2017-11-26T04:08:14.759Z,4.10
2017-11-26T04:10:43.665Z,3.80
2017-11-26T04:13:11.802Z,3.70
2017-11-26T04:15:39.973Z,3.80
2017-11-26T04:18:08.133Z,3.90
2017-11-26T04:20:36.269Z,3.70
2017-11-26T04:23:04.458Z,3.80
2017-11-26T04:25:32.633Z,3.90
2017-11-26T04:28:01.634Z,3.80
2017-11-26T04:30:29.815Z,3.80
2017-11-26T04:32:57.994Z,3.60
2017-11-26T04:35:26.900Z,3.70
2017-11-26T04:37:55.038Z,3.70
2017-11-26T04:40:23.188Z,3.80
2017-11-26T04:42:51.377Z,3.80
2017-11-26T04:45:19.528Z,3.80
2017-11-26T04:47:47.666Z,3.30
2017-11-26T04:50:16.595Z,3.50
2017-11-26T04:52:44.725Z,3.50
2017-11-26T04:55:13.639Z,3.70
2017-11-26T04:57:41.758Z,3.60
2017-11-26T05:00:09.910Z,3.70
2017-11-26T05:02:38.046Z,3.80
2017-11-26T05:05:06.944Z,4.00
2017-11-26T05:07:35.072Z,3.90
2017-11-26T05:10:04.718Z,4.00
2017-11-26T05:12:33.614Z,4.00
2017-11-26T05:15:01.732Z,4.00
2017-11-26T05:17:29.890Z,4.10
2017-11-26T05:19:58.022Z,4.20
2017-11-26T05:22:26.920Z,4.10
2017-11-26T05:24:55.806Z,4.00
2017-11-26T05:27:24.707Z,3.90
2017-11-26T05:29:52.846Z,3.90
2017-11-26T05:32:21.901Z,3.90
2017-11-26T05:34:50.050Z,4.00
2017-11-26T05:37:18.186Z,4.00
2017-11-26T05:39:46.302Z,3.90
2017-11-26T05:42:14.434Z,4.10
2017-11-26T05:44:43.329Z,4.10
2017-11-26T05:47:12.244Z,4.20
2017-11-26T05:49:40.356Z,4.10
2017-11-26T05:52:08.505Z,4.20
2017-11-26T05:54:36.636Z,4.20
2017-11-26T05:57:05.557Z,4.00
2017-11-26T05:59:33.679Z,4.00
2017-11-26T06:02:01.806Z,4.10
2017-11-26T06:04:29.977Z,4.00
2017-11-26T06:06:58.702Z,4.00
2017-11-26T06:09:26.834Z,4.00
2017-11-26T06:11:54.966Z,4.10
2017-11-26T06:14:23.890Z,4.00
2017-11-26T06:16:52.024Z,4.00
2017-11-26T06:19:20.166Z,3.80
2017-11-26T06:21:48.379Z,3.80
2017-11-26T06:24:17.295Z,3.90
2017-11-26T06:26:46.261Z,3.90
2017-11-26T06:29:15.150Z,3.90
2017-11-26T06:31:44.081Z,3.90
2017-11-26T06:34:13.017Z,3.90
2017-11-26T06:36:41.197Z,4.00
2017-11-26T06:39:10.197Z,3.90
2017-11-26T06:41:39.100Z,4.00
2017-11-26T06:44:07.245Z,4.00
2017-11-26T06:46:35.380Z,4.00
2017-11-26T06:49:03.527Z,4.20
2017-11-26T06:51:31.761Z,4.20
2017-11-26T06:53:59.905Z,4.10
2017-11-26T06:56:28.170Z,4.00
2017-11-26T06:58:57.506Z,4.10
2017-11-26T07:01:25.665Z,4.20
2017-11-26T07:03:54.612Z,3.90
2017-11-26T07:06:22.763Z,3.80
2017-11-26T07:08:51.733Z,4.00
2017-11-26T07:11:20.672Z,4.00
2017-11-26T07:13:48.817Z,4.00
2017-11-26T07:16:16.970Z,3.80
2017-11-26T07:18:45.110Z,3.80
2017-11-26T07:21:13.285Z,3.90
2017-11-26T07:23:41.462Z,4.10
2017-11-26T07:26:10.365Z,4.30
2017-11-26T07:28:39.245Z,4.40
2017-11-26T07:31:07.398Z,4.40
2017-11-26T07:33:35.502Z,4.40
2017-11-26T07:36:03.651Z,4.40
2017-11-26T07:38:31.797Z,4.40
2017-11-26T07:40:59.953Z,4.40
2017-11-26T07:43:28.102Z,4.40
2017-11-26T07:45:56.257Z,4.30
2017-11-26T07:48:24.378Z,4.40
2017-11-26T07:50:53.282Z,4.40
2017-11-26T07:53:21.459Z,4.40
2017-11-26T07:55:49.640Z,4.50
2017-11-26T07:58:18.566Z,4.30
2017-11-26T08:00:46.740Z,4.30
2017-11-26T08:03:14.950Z,4.30
2017-11-26T08:05:43.105Z,4.30
2017-11-26T08:08:12.037Z,4.50
2017-11-26T08:10:40.158Z,4.50
2017-11-26T08:13:08.325Z,4.60
2017-11-26T08:15:36.458Z,4.60
2017-11-26T08:18:04.585Z,4.50
2017-11-26T08:20:33.506Z,4.60
2017-11-26T08:23:02.348Z,4.60
2017-11-26T08:25:30.498Z,4.70
2017-11-26T08:27:58.647Z,4.70
2017-11-26T08:30:26.782Z,4.70
2017-11-26T08:32:54.913Z,4.60
2017-11-26T08:35:23.064Z,4.50
2017-11-26T08:37:51.285Z,4.50
2017-11-26T08:40:19.458Z,4.50
2017-11-26T08:42:47.790Z,4.50
2017-11-26T08:45:15.946Z,4.50
2017-11-26T08:47:44.827Z,4.60
2017-11-26T08:50:13.041Z,4.60
2017-11-26T08:52:41.373Z,4.60
2017-11-26T08:55:09.544Z,4.70
2017-11-26T08:57:38.444Z,4.70
2017-11-26T09:00:07.229Z,4.70
2017-11-26T09:02:36.121Z,4.70
2017-11-26T09:05:05.032Z,4.70
2017-11-26T09:07:35.664Z,4.70
2017-11-26T09:10:03.886Z,4.60
2017-11-26T09:12:32.109Z,4.60
2017-11-26T09:15:00.269Z,4.70
2017-11-26T09:17:28.449Z,4.70
2017-11-26T09:19:56.604Z,4.70
2017-11-26T09:22:26.639Z,4.70
2017-11-26T09:24:54.753Z,4.70
2017-11-26T09:27:22.900Z,4.80
2017-11-26T09:29:51.242Z,4.80
2017-11-26T09:32:19.411Z,4.90
2017-11-26T09:34:48.373Z,5.10
2017-11-26T09:37:16.541Z,5.00
2017-11-26T09:39:44.667Z,5.10
2017-11-26T09:42:12.817Z,5.10
2017-11-26T09:44:41.707Z,5.10
2017-11-26T09:47:10.615Z,5.10
2017-11-26T09:49:39.711Z,5.20
2017-11-26T09:52:07.845Z,5.00
2017-11-26T09:54:35.992Z,5.10
2017-11-26T09:57:04.173Z,5.00
2017-11-26T09:59:32.334Z,5.00
2017-11-26T10:02:00.497Z,4.90
2017-11-26T10:04:28.631Z,5.00
2017-11-26T10:06:57.550Z,5.10
2017-11-26T10:09:25.722Z,5.10
2017-11-26T10:11:53.959Z,5.10
2017-11-26T10:14:22.138Z,5.10
2017-11-26T10:16:51.056Z,5.20
2017-11-26T10:19:19.219Z,5.20
2017-11-26T10:21:47.349Z,5.30
2017-11-26T10:24:15.505Z,5.40
2017-11-26T10:26:43.646Z,5.20
2017-11-26T10:29:11.819Z,5.40
2017-11-26T10:31:39.967Z,5.40
2017-11-26T10:34:08.928Z,5.20
2017-11-26T10:36:37.073Z,5.20
2017-11-26T10:39:05.190Z,5.20
2017-11-26T10:41:34.161Z,5.00
2017-11-26T10:44:02.366Z,5.10
2017-11-26T10:46:31.260Z,5.20
2017-11-26T10:48:59.405Z,5.20
2017-11-26T10:51:27.603Z,5.20
2017-11-26T10:53:55.755Z,5.30
2017-11-26T10:56:23.878Z,5.40
2017-11-26T10:58:52.042Z,5.30
2017-11-26T11:01:20.946Z,5.40
2017-11-26T11:03:49.887Z,5.30
2017-11-26T11:06:18.034Z,5.20
2017-11-26T11:08:46.191Z,5.30
2017-11-26T11:11:14.309Z,5.40
2017-11-26T11:13:43.275Z,5.40
2017-11-26T11:16:11.410Z,5.40
2017-11-26T11:18:39.594Z,5.40
2017-11-26T11:21:07.732Z,5.30
2017-11-26T11:23:36.647Z,5.40
2017-11-26T11:26:04.798Z,5.40
2017-11-26T11:28:33.725Z,5.40
2017-11-26T11:31:01.862Z,5.40
2017-11-26T11:33:30.791Z,5.40
2017-11-26T11:35:58.916Z,5.40
2017-11-26T11:38:27.815Z,5.40
2017-11-26T11:40:55.962Z,5.40
2017-11-26T11:43:24.882Z,5.50
2017-11-26T11:45:53.034Z,5.40
2017-11-26T11:48:21.961Z,5.70
2017-11-26T11:50:50.151Z,5.60
2017-11-26T11:53:18.276Z,5.70
2017-11-26T11:55:47.206Z,5.70
2017-11-26T11:58:15.340Z,5.70
2017-11-26T12:00:44.282Z,5.60
2017-11-26T12:03:12.417Z,5.60
2017-11-26T12:05:40.583Z,5.60
2017-11-26T12:08:08.763Z,5.60
2017-11-26T12:10:37.664Z,5.50
2017-11-26T12:13:05.919Z,5.40
2017-11-26T12:15:34.828Z,5.50
2017-11-26T12:18:03.008Z,5.50
2017-11-26T12:20:31.133Z,5.60
2017-11-26T12:23:00.063Z,5.50
2017-11-26T12:25:28.227Z,5.50
2017-11-26T12:27:57.143Z,5.50
2017-11-26T12:30:25.308Z,5.50
2017-11-26T12:32:53.430Z,5.50
2017-11-26T12:35:21.676Z,5.50
2017-11-26T12:37:49.841Z,5.50
2017-11-26T12:40:18.885Z,5.60
2017-11-26T12:42:47.772Z,5.70
2017-11-26T12:45:16.748Z,5.80
2017-11-26T12:47:44.924Z,5.80
2017-11-26T12:50:13.038Z,5.70
2017-11-26T12:52:41.301Z,5.70
2017-11-26T12:55:10.280Z,5.70
2017-11-26T12:57:39.252Z,5.60
2017-11-26T13:00:07.385Z,5.60
2017-11-26T13:02:35.543Z,5.70
2017-11-26T13:05:03.687Z,5.80
2017-11-26T13:07:32.605Z,5.80
2017-11-26T13:10:00.744Z,5.80
2017-11-26T13:12:30.107Z,5.80
2017-11-26T13:14:58.243Z,5.80
2017-11-26T13:17:26.397Z,5.50
2017-11-26T13:19:55.317Z,4.90
2017-11-26T13:22:24.617Z,4.90
2017-11-26T13:24:53.344Z,4.90
2017-11-26T13:27:21.893Z,4.80
2017-11-26T13:29:50.017Z,4.70
2017-11-26T13:32:18.211Z,4.90
2017-11-26T13:34:47.134Z,4.80
2017-11-26T13:37:15.250Z,4.80
2017-11-26T13:39:44.212Z,4.90
2017-11-26T13:42:12.379Z,4.70
2017-11-26T13:44:40.520Z,4.80
2017-11-26T13:47:08.655Z,4.90
2017-11-26T13:49:36.865Z,4.80
2017-11-26T13:52:05.772Z,4.80
2017-11-26T13:54:33.907Z,4.80
2017-11-26T13:57:02.825Z,4.80
2017-11-26T13:59:30.986Z,4.80
2017-11-26T14:01:59.895Z,4.90
2017-11-26T14:04:28.914Z,4.90
2017-11-26T14:06:57.814Z,4.90
2017-11-26T14:09:25.950Z,4.90
2017-11-26T14:11:54.075Z,5.00
2017-11-26T14:14:22.265Z,5.10
2017-11-26T14:16:51.161Z,5.10
2017-11-26T14:19:20.083Z,5.10
2017-11-26T14:21:48.225Z,5.10
2017-11-26T14:24:16.386Z,5.30
2017-11-26T14:26:45.543Z,5.40
2017-11-26T14:29:13.675Z,5.40
2017-11-26T14:31:42.554Z,5.40
2017-11-26T14:34:11.479Z,5.40
2017-11-26T14:36:39.620Z,5.40
2017-11-26T14:39:08.590Z,5.40
2017-11-26T14:41:36.762Z,5.30
2017-11-26T14:44:04.932Z,5.30
2017-11-26T14:46:33.322Z,5.30
2017-11-26T14:49:02.685Z,5.30
2017-11-26T14:51:31.606Z,5.20
2017-11-26T14:53:59.732Z,5.10
2017-11-26T14:56:27.883Z,5.10
2017-11-26T14:58:56.665Z,5.10
2017-11-26T15:01:25.550Z,5.10
2017-11-26T15:03:53.734Z,5.10
2017-11-26T15:06:21.955Z,5.00
2017-11-26T15:08:50.127Z,5.00
2017-11-26T15:11:18.275Z,5.00
2017-11-26T15:13:46.402Z,5.00
2017-11-26T15:16:15.341Z,5.10
2017-11-26T15:18:43.485Z,5.20
2017-11-26T15:21:11.651Z,5.20
2017-11-26T15:23:40.547Z,5.00
2017-11-26T15:26:08.671Z,5.00
2017-11-26T15:28:38.131Z,5.10
2017-11-26T15:31:06.289Z,5.10
2017-11-26T15:33:34.505Z,5.10
2017-11-26T15:36:02.668Z,5.10
2017-11-26T15:38:30.814Z,5.10
2017-11-26T15:40:59.856Z,5.00
2017-11-26T15:43:28.794Z,5.00
2017-11-26T15:45:56.927Z,4.90
2017-11-26T15:48:25.149Z,4.70
2017-11-26T15:50:53.305Z,4.80
2017-11-26T15:53:22.212Z,4.80
2017-11-26T15:55:50.346Z,4.80
2017-11-26T15:58:19.302Z,4.70
2017-11-26T16:00:50.473Z,4.70
2017-11-26T16:03:18.648Z,4.70
2017-11-26T16:05:46.800Z,4.60
2017-11-26T16:08:15.001Z,4.70
2017-11-26T16:10:43.133Z,4.60
2017-11-26T16:13:11.442Z,4.50
2017-11-26T16:15:39.597Z,4.60
2017-11-26T16:18:07.730Z,4.60
2017-11-26T16:20:36.455Z,4.70
2017-11-26T16:23:04.588Z,4.70
2017-11-26T16:25:32.737Z,4.50
2017-11-26T16:28:01.635Z,4.50
2017-11-26T16:30:30.556Z,4.50
2017-11-26T16:32:58.710Z,4.40
2017-11-26T16:35:26.881Z,4.50
2017-11-26T16:37:55.012Z,4.40
2017-11-26T16:40:23.166Z,4.60
2017-11-26T16:42:51.308Z,4.60
2017-11-26T16:45:19.453Z,4.50
2017-11-26T16:47:48.403Z,4.70
2017-11-26T16:50:16.735Z,4.70
2017-11-26T16:52:45.644Z,4.80
2017-11-26T16:55:13.825Z,4.70
2017-11-26T16:57:41.989Z,4.90
2017-11-26T17:00:10.273Z,4.90
2017-11-26T17:02:39.215Z,4.80
2017-11-26T17:05:08.109Z,4.80
2017-11-26T17:07:36.392Z,4.80
2017-11-26T17:10:05.281Z,4.60
2017-11-26T17:12:34.205Z,4.60
2017-11-26T17:15:03.229Z,4.70
2017-11-26T17:17:31.375Z,4.60
2017-11-26T17:19:59.532Z,4.70
2017-11-26T17:22:27.689Z,4.70
2017-11-26T17:24:56.646Z,4.80
2017-11-26T17:27:24.817Z,4.80
2017-11-26T17:29:54.183Z,4.90
2017-11-26T17:32:22.319Z,4.80
2017-11-26T17:34:52.316Z,4.90
2017-11-26T17:37:20.464Z,4.90
2017-11-26T17:39:48.633Z,4.80
2017-11-26T17:42:17.752Z,4.80
2017-11-26T17:44:45.925Z,4.80
2017-11-26T17:47:14.056Z,4.70
2017-11-26T17:49:42.225Z,4.70
2017-11-26T17:52:10.485Z,4.70
2017-11-26T17:54:39.666Z,4.70
2017-11-26T17:57:08.584Z,4.60
2017-11-26T17:59:36.746Z,4.60
2017-11-26T18:02:04.900Z,4.40
2017-11-26T18:04:33.815Z,4.40
2017-11-26T18:07:01.970Z,4.40
2017-11-26T18:09:30.906Z,4.50
2017-11-26T18:11:59.968Z,4.50
2017-11-26T18:14:29.110Z,4.30
2017-11-26T18:16:57.247Z,4.30
2017-11-26T18:19:26.265Z,4.20
2017-11-26T18:21:55.273Z,4.20
2017-11-26T18:24:23.409Z,4.20
2017-11-26T18:26:51.587Z,4.20
2017-11-26T18:29:19.737Z,4.00
2017-11-26T18:31:47.919Z,4.00
2017-11-26T18:34:16.717Z,4.10
2017-11-26T18:36:44.871Z,3.90
2017-11-26T18:39:13.014Z,3.90
2017-11-26T18:41:41.184Z,4.00
2017-11-26T18:44:10.106Z,4.20
2017-11-26T18:46:39.039Z,4.00
2017-11-26T18:49:07.221Z,4.00
2017-11-26T18:51:35.380Z,4.00
2017-11-26T18:54:03.521Z,4.00
2017-11-26T18:56:31.642Z,4.10
2017-11-26T18:58:59.821Z,4.10
2017-11-26T19:01:30.018Z,4.20
2017-11-26T19:03:58.178Z,4.20
2017-11-26T19:06:26.401Z,4.30
2017-11-26T19:08:55.341Z,4.00
2017-11-26T19:11:23.469Z,4.00
2017-11-26T19:13:52.436Z,4.10
2017-11-26T19:16:20.577Z,4.10
2017-11-26T19:18:48.868Z,4.10
2017-11-26T19:21:17.771Z,4.10
2017-11-26T19:23:45.946Z,4.10
2017-11-26T19:26:14.085Z,4.20
2017-11-26T19:28:43.034Z,4.20
2017-11-26T19:31:11.185Z,4.10
2017-11-26T19:33:41.028Z,4.20
2017-11-26T19:36:09.936Z,4.20
2017-11-26T19:38:38.084Z,4.20
2017-11-26T19:41:07.000Z,4.10
2017-11-26T19:43:35.174Z,4.10
2017-11-26T19:46:03.339Z,4.10
2017-11-26T19:48:32.896Z,4.10
2017-11-26T19:51:01.040Z,4.10
2017-11-26T19:53:29.193Z,4.10
2017-11-26T19:55:57.705Z,4.20
2017-11-26T19:58:28.519Z,4.30
2017-11-26T20:00:56.739Z,4.30
2017-11-26T20:03:24.977Z,4.20
2017-11-26T20:05:53.888Z,4.20
2017-11-26T20:08:22.058Z,4.20
2017-11-26T20:10:50.235Z,4.10
2017-11-26T20:13:19.195Z,4.20
2017-11-26T20:15:47.345Z,4.20
2017-11-26T20:18:16.265Z,4.20
2017-11-26T20:20:44.456Z,4.20
2017-11-26T20:23:12.636Z,4.30
2017-11-26T20:25:41.262Z,4.50
2017-11-26T20:28:10.176Z,4.40
2017-11-26T20:30:38.324Z,4.40
2017-11-26T20:33:07.266Z,4.50
2017-11-26T20:35:35.429Z,4.40
2017-11-26T20:38:03.578Z,4.50
2017-11-26T20:40:31.742Z,4.50
2017-11-26T20:42:59.921Z,4.40
2017-11-26T20:45:28.078Z,4.50
2017-11-26T20:47:57.028Z,4.50
2017-11-26T20:50:25.188Z,4.50
2017-11-26T20:52:53.332Z,4.50
2017-11-26T20:55:21.515Z,4.40
2017-11-26T20:57:49.662Z,4.40
2017-11-26T21:00:18.572Z,4.60
2017-11-26T21:02:46.787Z,4.60
2017-11-26T21:05:15.238Z,4.60
2017-11-26T21:07:44.536Z,4.70
2017-11-26T21:10:13.734Z,4.60
2017-11-26T21:12:42.932Z,4.60
2017-11-26T21:15:11.399Z,4.60
2017-11-26T21:17:39.890Z,4.60
2017-11-26T21:20:08.329Z,4.50
2017-11-26T21:22:36.779Z,4.60
2017-11-26T21:25:06.153Z,4.40
2017-11-26T21:27:36.167Z,4.40
2017-11-26T21:30:04.825Z,4.40
2017-11-26T21:32:34.270Z,4.50
2017-11-26T21:35:03.861Z,4.40
2017-11-26T21:37:32.316Z,4.50
2017-11-26T21:40:00.734Z,4.50
2017-11-26T21:42:29.149Z,4.60
2017-11-26T21:44:58.259Z,4.60
2017-11-26T21:47:27.597Z,4.50
2017-11-26T21:49:57.247Z,4.40
2017-11-26T21:52:25.659Z,4.50
2017-11-26T21:54:54.105Z,4.40
2017-11-26T21:57:22.535Z,4.40
2017-11-26T21:59:50.988Z,4.30
2017-11-26T22:02:20.536Z,4.30
2017-11-26T22:04:49.811Z,4.50
2017-11-26T22:07:18.709Z,4.40
2017-11-26T22:09:47.180Z,4.40
2017-11-26T22:12:15.879Z,4.40
2017-11-26T22:14:44.801Z,4.50
2017-11-26T22:17:12.971Z,4.50
2017-11-26T22:19:41.112Z,4.60
2017-11-26T22:22:09.235Z,4.60
2017-11-26T22:24:38.132Z,4.60
2017-11-26T22:27:07.021Z,4.60
2017-11-26T22:29:35.954Z,4.70
2017-11-26T22:32:04.969Z,4.70
2017-11-26T22:34:33.111Z,4.70
2017-11-26T22:37:02.021Z,4.50
2017-11-26T22:39:30.151Z,4.50
2017-11-26T22:41:58.293Z,4.60
2017-11-26T22:44:27.335Z,4.40
2017-11-26T22:46:55.473Z,4.50
2017-11-26T22:49:24.413Z,4.50
2017-11-26T22:51:52.542Z,4.50
2017-11-26T22:54:21.429Z,4.60
2017-11-26T22:56:50.317Z,4.70
2017-11-26T22:59:19.355Z,4.50
2017-11-26T23:01:47.472Z,4.50
2017-11-26T23:04:16.390Z,4.50
2017-11-26T23:06:44.524Z,4.50
2017-11-26T23:09:12.686Z,4.50
2017-11-26T23:11:40.919Z,4.60
2017-11-26T23:14:09.809Z,4.80
2017-11-26T23:16:37.964Z,4.70
2017-11-26T23:19:06.884Z,4.70
2017-11-26T23:21:35.882Z,4.70
2017-11-26T23:24:04.010Z,4.70
2017-11-26T23:26:32.921Z,4.50
2017-11-26T23:29:01.043Z,4.50
2017-11-26T23:31:29.162Z,4.60
2017-11-26T23:33:57.281Z,4.50
2017-11-26T23:36:26.939Z,4.70
2017-11-26T23:38:55.082Z,4.70
2017-11-26T23:41:24.015Z,4.70
2017-11-26T23:43:52.123Z,4.70
2017-11-26T23:46:22.178Z,4.70
2017-11-26T23:48:52.021Z,4.80
2017-11-26T23:51:20.208Z,4.70
2017-11-26T23:53:49.130Z,4.80
2017-11-26T23:56:17.270Z,4.60
2017-11-26T23:58:46.175Z,4.60
